createdAt,value
2018-04-16T00:00:08.064Z,18.47
2018-04-16T00:01:08.000Z,18.37
2018-04-16T00:02:07.944Z,18.39
2018-04-16T00:03:07.867Z,18.35
2018-04-16T00:04:07.807Z,18.39
2018-04-16T00:05:07.747Z,18.39
2018-04-16T00:06:07.661Z,18.39
2018-04-16T00:07:07.594Z,18.30
2018-04-16T00:08:07.525Z,18.36
2018-04-16T00:09:07.473Z,18.41
2018-04-16T00:10:07.444Z,18.47
2018-04-16T00:11:07.332Z,18.45
2018-04-16T00:12:07.270Z,18.47
2018-04-16T00:13:07.205Z,18.41
2018-04-16T00:14:07.137Z,18.44
2018-04-16T00:15:07.070Z,18.41
2018-04-16T00:16:07.000Z,18.45
2018-04-16T00:17:06.935Z,18.50
2018-04-16T00:18:06.869Z,18.37
2018-04-16T00:19:06.829Z,18.48
2018-04-16T00:20:06.739Z,18.42
2018-04-16T00:21:06.684Z,18.44
2018-04-16T00:22:06.607Z,18.45
2018-04-16T00:23:06.543Z,18.45
2018-04-16T00:24:06.475Z,18.51
2018-04-16T00:25:06.417Z,18.48
2018-04-16T00:26:06.356Z,18.41
2018-04-16T00:27:06.278Z,18.29
2018-04-16T00:28:06.233Z,18.30
2018-04-16T00:29:06.140Z,18.27
2018-04-16T00:30:06.101Z,18.27
2018-04-16T00:31:06.023Z,18.21
2018-04-16T00:32:05.943Z,18.23
2018-04-16T00:33:05.880Z,18.23
2018-04-16T00:34:05.824Z,18.29
2018-04-16T00:35:05.771Z,18.23
2018-04-16T00:36:05.679Z,18.21
2018-04-16T00:37:05.624Z,18.29
2018-04-16T00:38:05.543Z,18.26
2018-04-16T00:39:05.482Z,18.15
2018-04-16T00:40:05.417Z,18.15
2018-04-16T00:41:05.367Z,18.14
2018-04-16T00:42:05.294Z,18.18
2018-04-16T00:43:05.217Z,18.08
2018-04-16T00:44:05.148Z,18.23
2018-04-16T00:45:05.107Z,18.21
2018-04-16T00:46:05.016Z,18.18
2018-04-16T00:47:04.949Z,18.23
2018-04-16T00:48:04.903Z,18.15
2018-04-16T00:49:04.821Z,18.17
2018-04-16T00:50:04.771Z,18.17
2018-04-16T00:51:04.685Z,18.14
2018-04-16T00:52:04.617Z,18.21
2018-04-16T00:53:04.571Z,18.17
2018-04-16T00:54:04.510Z,18.26
2018-04-16T00:55:04.417Z,18.25
2018-04-16T00:56:04.381Z,18.21
2018-04-16T00:57:04.300Z,18.23
2018-04-16T00:58:04.223Z,18.25
2018-04-16T00:59:04.178Z,18.26
2018-04-16T01:00:04.094Z,18.26
2018-04-16T01:01:04.037Z,18.32
2018-04-16T01:02:03.963Z,18.33
2018-04-16T01:03:03.910Z,18.33
2018-04-16T01:04:03.865Z,18.25
2018-04-16T01:05:03.761Z,18.25
2018-04-16T01:06:03.690Z,18.21
2018-04-16T01:07:03.629Z,18.25
2018-04-16T01:08:03.562Z,18.23
2018-04-16T01:09:03.496Z,18.35
2018-04-16T01:10:03.446Z,18.27
2018-04-16T01:11:03.380Z,18.29
2018-04-16T01:12:03.311Z,18.29
2018-04-16T01:13:03.235Z,18.33
2018-04-16T01:14:03.179Z,18.35
2018-04-16T01:15:03.113Z,18.39
2018-04-16T01:16:03.041Z,18.35
2018-04-16T01:17:02.995Z,18.30
2018-04-16T01:18:02.926Z,18.37
2018-04-16T01:19:02.849Z,18.33
2018-04-16T01:20:02.770Z,18.35
2018-04-16T01:21:02.724Z,18.32
2018-04-16T01:22:02.638Z,18.33
2018-04-16T01:23:02.594Z,18.32
2018-04-16T01:24:02.503Z,18.33
2018-04-16T01:25:02.461Z,18.42
2018-04-16T01:26:02.400Z,18.39
2018-04-16T01:27:02.313Z,18.47
2018-04-16T01:28:02.260Z,18.47
2018-04-16T01:29:02.171Z,18.48
2018-04-16T01:30:02.120Z,18.50
2018-04-16T01:31:02.036Z,18.47
2018-04-16T01:32:01.985Z,18.42
2018-04-16T01:33:01.921Z,18.42
2018-04-16T01:34:01.844Z,18.41
2018-04-16T01:35:01.786Z,18.35
2018-04-16T01:36:01.706Z,18.33
2018-04-16T01:37:01.656Z,18.27
2018-04-16T01:38:01.576Z,18.17
2018-04-16T01:39:01.511Z,18.20
2018-04-16T01:40:01.457Z,18.15
2018-04-16T01:41:01.422Z,18.17
2018-04-16T01:42:01.342Z,18.18
2018-04-16T01:43:01.251Z,18.17
2018-04-16T01:44:01.168Z,18.15
2018-04-16T01:45:01.107Z,18.03
2018-04-16T01:46:01.064Z,18.03
2018-04-16T01:47:00.969Z,18.11
2018-04-16T01:48:00.930Z,18.08
2018-04-16T01:49:00.858Z,18.10
2018-04-16T01:50:00.779Z,18.14
2018-04-16T01:51:00.728Z,18.20
2018-04-16T01:52:00.666Z,18.18
2018-04-16T01:53:00.585Z,18.14
2018-04-16T01:54:00.517Z,18.23
2018-04-16T01:55:00.463Z,18.17
2018-04-16T01:56:00.391Z,18.18
2018-04-16T01:57:00.326Z,18.20
2018-04-16T01:58:00.244Z,18.15
2018-04-16T01:59:00.191Z,18.12
2018-04-16T02:00:00.110Z,18.07
2018-04-16T02:01:00.061Z,18.05
2018-04-16T02:01:59.991Z,18.03
2018-04-16T02:02:59.926Z,17.95
2018-04-16T02:03:59.851Z,17.96
2018-04-16T02:04:59.801Z,17.92
2018-04-16T02:05:59.729Z,17.93
2018-04-16T02:06:59.661Z,17.89
2018-04-16T02:07:59.574Z,17.86
2018-04-16T02:08:59.504Z,17.93
2018-04-16T02:09:59.470Z,17.89
2018-04-16T02:10:59.375Z,17.87
2018-04-16T02:11:59.315Z,17.81
2018-04-16T02:12:59.259Z,17.89
2018-04-16T02:13:59.177Z,17.77
2018-04-16T02:14:59.112Z,17.87
2018-04-16T02:15:59.045Z,17.72
2018-04-16T02:16:58.988Z,17.64
2018-04-16T02:17:58.912Z,17.64
2018-04-16T02:18:58.856Z,17.66
2018-04-16T02:19:58.804Z,17.64
2018-04-16T02:20:58.707Z,17.64
2018-04-16T02:21:58.657Z,17.46
2018-04-16T02:22:58.623Z,17.28
2018-04-16T02:23:58.524Z,17.19
2018-04-16T02:24:58.467Z,17.19
2018-04-16T02:25:58.374Z,17.22
2018-04-16T02:26:58.314Z,17.21
2018-04-16T02:27:58.237Z,17.28
2018-04-16T02:28:58.166Z,17.33
2018-04-16T02:29:58.106Z,17.30
2018-04-16T02:30:58.037Z,17.33
2018-04-16T02:31:57.982Z,17.28
2018-04-16T02:32:57.931Z,17.23
2018-04-16T02:33:57.855Z,17.26
2018-04-16T02:34:57.767Z,17.33
2018-04-16T02:35:57.700Z,17.31
2018-04-16T02:36:57.635Z,17.14
2018-04-16T02:37:57.573Z,17.04
2018-04-16T02:38:57.503Z,17.00
2018-04-16T02:39:57.448Z,16.98
2018-04-16T02:40:57.366Z,16.86
2018-04-16T02:41:57.312Z,16.88
2018-04-16T02:42:57.244Z,16.78
2018-04-16T02:43:57.163Z,16.66
2018-04-16T02:44:57.107Z,16.49
2018-04-16T02:45:57.042Z,16.41
2018-04-16T02:46:56.956Z,16.33
2018-04-16T02:47:56.889Z,16.35
2018-04-16T02:48:56.819Z,16.23
2018-04-16T02:49:56.762Z,16.28
2018-04-16T02:50:56.682Z,16.14
2018-04-16T02:51:56.636Z,16.17
2018-04-16T02:52:56.555Z,16.17
2018-04-16T02:53:56.485Z,16.11
2018-04-16T02:54:56.432Z,16.07
2018-04-16T02:55:56.360Z,16.07
2018-04-16T02:56:56.276Z,15.89
2018-04-16T02:57:56.210Z,15.84
2018-04-16T02:58:56.137Z,15.83
2018-04-16T02:59:56.090Z,15.89
2018-04-16T03:00:56.019Z,15.82
2018-04-16T03:01:55.956Z,15.83
2018-04-16T03:02:55.871Z,15.90
2018-04-16T03:03:55.816Z,15.78
2018-04-16T03:04:55.733Z,15.86
2018-04-16T03:05:55.683Z,15.93
2018-04-16T03:06:55.609Z,15.94
2018-04-16T03:07:55.526Z,16.04
2018-04-16T03:08:55.457Z,15.96
2018-04-16T03:09:55.401Z,16.05
2018-04-16T03:10:55.318Z,16.00
2018-04-16T03:11:55.267Z,15.93
2018-04-16T03:12:55.204Z,15.94
2018-04-16T03:13:55.130Z,15.87
2018-04-16T03:14:55.067Z,15.84
2018-04-16T03:15:55.006Z,15.96
2018-04-16T03:16:54.919Z,15.92
2018-04-16T03:17:54.863Z,15.92
2018-04-16T03:18:54.770Z,15.87
2018-04-16T03:19:54.713Z,15.87
2018-04-16T03:20:54.637Z,15.90
2018-04-16T03:21:54.590Z,15.93
2018-04-16T03:22:54.499Z,16.01
2018-04-16T03:23:54.444Z,16.02
2018-04-16T03:24:54.378Z,15.83
2018-04-16T03:25:54.310Z,15.76
2018-04-16T03:26:54.238Z,15.80
2018-04-16T03:27:54.172Z,15.72
2018-04-16T03:28:54.115Z,15.68
2018-04-16T03:29:54.015Z,15.60
2018-04-16T03:30:53.960Z,15.69
2018-04-16T03:31:53.893Z,15.65
2018-04-16T03:32:53.825Z,15.69
2018-04-16T03:33:53.747Z,15.50
2018-04-16T03:34:53.675Z,15.59
2018-04-16T03:35:53.605Z,15.51
2018-04-16T03:36:53.536Z,15.51
2018-04-16T03:37:53.469Z,15.35
2018-04-16T03:38:53.407Z,15.41
2018-04-16T03:39:53.321Z,15.36
2018-04-16T03:40:53.273Z,15.49
2018-04-16T03:41:53.190Z,15.41
2018-04-16T03:42:53.118Z,15.41
2018-04-16T03:43:53.049Z,15.49
2018-04-16T03:44:52.981Z,15.53
2018-04-16T03:45:52.934Z,15.53
2018-04-16T03:46:52.851Z,15.57
2018-04-16T03:47:52.773Z,15.56
2018-04-16T03:48:52.722Z,15.53
2018-04-16T03:49:52.652Z,15.59
2018-04-16T03:50:52.583Z,15.60
2018-04-16T03:51:52.507Z,15.49
2018-04-16T03:52:52.431Z,15.49
2018-04-16T03:53:52.376Z,15.43
2018-04-16T03:54:52.312Z,15.35
2018-04-16T03:55:52.238Z,15.35
2018-04-16T03:56:52.151Z,15.27
2018-04-16T03:57:52.091Z,15.29
2018-04-16T03:58:52.038Z,15.29
2018-04-16T03:59:51.948Z,15.29
2018-04-16T04:00:51.873Z,15.17
2018-04-16T04:01:51.836Z,15.23
2018-04-16T04:02:51.748Z,15.20
2018-04-16T04:03:51.663Z,15.07
2018-04-16T04:04:51.612Z,15.07
2018-04-16T04:05:51.541Z,15.09
2018-04-16T04:06:51.455Z,15.09
2018-04-16T04:07:51.404Z,15.06
2018-04-16T04:08:51.346Z,15.11
2018-04-16T04:09:51.275Z,15.14
2018-04-16T04:10:51.178Z,15.09
2018-04-16T04:11:51.122Z,15.06
2018-04-16T04:12:51.056Z,14.89
2018-04-16T04:13:50.971Z,14.99
2018-04-16T04:14:50.902Z,15.06
2018-04-16T04:15:50.846Z,15.03
2018-04-16T04:16:50.776Z,15.17
2018-04-16T04:17:50.713Z,15.11
2018-04-16T04:18:50.622Z,15.27
2018-04-16T04:19:50.564Z,15.25
2018-04-16T04:20:50.513Z,15.11
2018-04-16T04:21:50.411Z,15.13
2018-04-16T04:22:50.361Z,15.17
2018-04-16T04:23:50.304Z,15.19
2018-04-16T04:24:50.219Z,15.11
2018-04-16T04:25:50.156Z,15.07
2018-04-16T04:26:50.080Z,14.98
2018-04-16T04:27:50.012Z,14.95
2018-04-16T04:28:49.944Z,14.94
2018-04-16T04:29:49.874Z,14.98
2018-04-16T04:30:49.808Z,14.94
2018-04-16T04:31:49.736Z,14.91
2018-04-16T04:32:49.669Z,15.01
2018-04-16T04:33:49.579Z,15.07
2018-04-16T04:34:49.508Z,15.02
2018-04-16T04:35:49.454Z,15.02
2018-04-16T04:36:49.387Z,14.99
2018-04-16T04:37:49.305Z,15.09
2018-04-16T04:38:49.235Z,15.06
2018-04-16T04:39:49.165Z,14.94
2018-04-16T04:40:49.097Z,15.01
2018-04-16T04:41:49.027Z,15.10
2018-04-16T04:42:48.960Z,14.98
2018-04-16T04:43:48.881Z,15.13
2018-04-16T04:44:48.815Z,15.14
2018-04-16T04:45:48.774Z,15.09
2018-04-16T04:46:48.689Z,15.07
2018-04-16T04:47:48.634Z,15.01
2018-04-16T04:48:48.537Z,15.02
2018-04-16T04:49:48.482Z,15.06
2018-04-16T04:50:48.431Z,15.09
2018-04-16T04:51:48.352Z,15.09
2018-04-16T04:52:48.280Z,15.17
2018-04-16T04:53:48.206Z,15.13
2018-04-16T04:54:48.160Z,15.10
2018-04-16T04:55:48.068Z,15.21
2018-04-16T04:56:47.985Z,15.29
2018-04-16T04:57:47.914Z,15.25
2018-04-16T04:58:47.845Z,15.21
2018-04-16T04:59:47.789Z,15.19
2018-04-16T05:00:47.703Z,15.28
2018-04-16T05:01:47.637Z,15.19
2018-04-16T05:02:47.580Z,15.19
2018-04-16T05:03:47.499Z,15.23
2018-04-16T05:04:47.444Z,15.31
2018-04-16T05:05:47.361Z,15.21
2018-04-16T05:06:47.293Z,15.25
2018-04-16T05:07:47.218Z,15.14
2018-04-16T05:08:47.149Z,15.20
2018-04-16T05:09:47.103Z,15.10
2018-04-16T05:10:47.021Z,15.01
2018-04-16T05:11:46.941Z,15.02
2018-04-16T05:12:46.892Z,14.92
2018-04-16T05:13:46.822Z,14.92
2018-04-16T05:14:46.760Z,14.78
2018-04-16T05:15:46.666Z,14.81
2018-04-16T05:16:46.610Z,14.75
2018-04-16T05:17:46.562Z,14.73
2018-04-16T05:18:46.475Z,14.78
2018-04-16T05:19:46.380Z,14.83
2018-04-16T05:20:46.316Z,14.81
2018-04-16T05:21:46.243Z,14.95
2018-04-16T05:22:46.199Z,14.98
2018-04-16T05:23:46.126Z,15.06
2018-04-16T05:24:46.040Z,14.96
2018-04-16T05:25:45.981Z,15.01
2018-04-16T05:26:45.900Z,15.03
2018-04-16T05:27:45.846Z,14.98
2018-04-16T05:28:45.760Z,14.96
2018-04-16T05:29:45.714Z,14.94
2018-04-16T05:30:45.619Z,14.92
2018-04-16T05:31:45.549Z,14.94
2018-04-16T05:32:45.488Z,14.92
2018-04-16T05:33:45.463Z,14.96
2018-04-16T05:34:45.360Z,15.01
2018-04-16T05:35:45.271Z,14.98
2018-04-16T05:36:45.203Z,14.83
2018-04-16T05:37:45.147Z,14.83
2018-04-16T05:38:45.063Z,14.81
2018-04-16T05:39:45.010Z,14.77
2018-04-16T05:40:44.957Z,14.80
2018-04-16T05:41:44.857Z,14.70
2018-04-16T05:42:44.778Z,14.94
2018-04-16T05:43:44.741Z,14.86
2018-04-16T05:44:44.644Z,14.88
2018-04-16T05:45:44.572Z,14.86
2018-04-16T05:46:44.504Z,14.83
2018-04-16T05:47:44.436Z,14.77
2018-04-16T05:48:44.374Z,14.84
2018-04-16T05:49:44.308Z,14.84
2018-04-16T05:50:44.239Z,14.83
2018-04-16T05:51:44.183Z,14.78
2018-04-16T05:52:44.102Z,14.73
2018-04-16T05:53:44.016Z,14.73
2018-04-16T05:54:43.955Z,14.64
2018-04-16T05:55:43.874Z,14.62
2018-04-16T05:56:43.839Z,14.54
2018-04-16T05:57:43.763Z,14.52
2018-04-16T05:58:43.667Z,14.50
2018-04-16T05:59:43.618Z,14.51
2018-04-16T06:00:43.523Z,14.52
2018-04-16T06:01:43.465Z,14.57
2018-04-16T06:02:43.402Z,14.55
2018-04-16T06:03:43.329Z,14.47
2018-04-16T06:04:43.248Z,14.51
2018-04-16T06:05:43.235Z,14.55
2018-04-16T06:06:43.123Z,14.43
2018-04-16T06:07:43.060Z,14.47
2018-04-16T06:08:42.980Z,14.45
2018-04-16T06:09:42.902Z,14.47
2018-04-16T06:10:42.824Z,14.55
2018-04-16T06:11:42.769Z,14.46
2018-04-16T06:12:42.686Z,14.46
2018-04-16T06:13:42.634Z,14.57
2018-04-16T06:14:42.544Z,14.47
2018-04-16T06:15:42.477Z,14.52
2018-04-16T06:16:42.426Z,14.52
2018-04-16T06:17:42.350Z,14.45
2018-04-16T06:18:42.269Z,14.43
2018-04-16T06:19:42.228Z,14.40
2018-04-16T06:20:42.150Z,14.47
2018-04-16T06:21:42.053Z,14.50
2018-04-16T06:22:41.987Z,14.47
2018-04-16T06:23:41.919Z,14.40
2018-04-16T06:24:41.859Z,14.37
2018-04-16T06:25:41.794Z,14.39
2018-04-16T06:26:41.709Z,14.47
2018-04-16T06:27:41.674Z,14.47
2018-04-16T06:28:41.577Z,14.45
2018-04-16T06:29:41.497Z,14.47
2018-04-16T06:30:41.420Z,14.50
2018-04-16T06:31:41.353Z,14.43
2018-04-16T06:32:41.311Z,14.33
2018-04-16T06:33:41.216Z,14.22
2018-04-16T06:34:41.142Z,14.29
2018-04-16T06:35:41.091Z,14.21
2018-04-16T06:36:41.021Z,14.15
2018-04-16T06:37:40.961Z,14.29
2018-04-16T06:38:40.864Z,14.27
2018-04-16T06:39:40.792Z,14.22
2018-04-16T06:40:40.759Z,14.36
2018-04-16T06:41:40.685Z,14.29
2018-04-16T06:42:40.596Z,14.29
2018-04-16T06:43:40.530Z,14.33
2018-04-16T06:44:40.471Z,14.35
2018-04-16T06:45:40.374Z,14.20
2018-04-16T06:46:40.305Z,14.24
2018-04-16T06:47:40.244Z,14.20
2018-04-16T06:48:40.166Z,14.15
2018-04-16T06:49:40.111Z,14.12
2018-04-16T06:50:40.037Z,14.15
2018-04-16T06:51:39.950Z,14.21
2018-04-16T06:52:39.890Z,14.18
2018-04-16T06:53:39.819Z,14.14
2018-04-16T06:54:39.772Z,14.17
2018-04-16T06:55:39.689Z,14.20
2018-04-16T06:56:39.598Z,14.24
2018-04-16T06:57:39.530Z,14.22
2018-04-16T06:58:39.471Z,14.21
2018-04-16T06:59:39.437Z,14.18
2018-04-16T07:00:39.322Z,14.20
2018-04-16T07:01:39.255Z,14.25
2018-04-16T07:02:39.190Z,14.37
2018-04-16T07:03:39.130Z,14.43
2018-04-16T07:04:39.053Z,14.47
2018-04-16T07:05:38.979Z,14.51
2018-04-16T07:06:38.899Z,14.50
2018-04-16T07:07:38.829Z,14.42
2018-04-16T07:08:38.755Z,14.43
2018-04-16T07:09:38.723Z,14.45
2018-04-16T07:10:38.616Z,14.40
2018-04-16T07:11:38.545Z,14.43
2018-04-16T07:12:38.529Z,14.35
2018-04-16T07:13:38.428Z,14.43
2018-04-16T07:14:38.382Z,14.46
2018-04-16T07:15:38.271Z,14.45
2018-04-16T07:16:38.197Z,14.43
2018-04-16T07:17:38.146Z,14.37
2018-04-16T07:18:38.054Z,14.28
2018-04-16T07:19:38.024Z,14.29
2018-04-16T07:20:37.932Z,14.36
2018-04-16T07:21:37.839Z,14.39
2018-04-16T07:22:37.776Z,14.32
2018-04-16T07:23:37.721Z,14.25
2018-04-16T07:24:37.650Z,14.33
2018-04-16T07:25:37.584Z,14.29
2018-04-16T07:26:37.489Z,14.33
2018-04-16T07:27:37.418Z,14.37
2018-04-16T07:28:37.384Z,14.33
2018-04-16T07:29:37.293Z,14.37
2018-04-16T07:30:37.228Z,14.35
2018-04-16T07:31:37.154Z,14.45
2018-04-16T07:32:37.071Z,14.46
2018-04-16T07:33:37.057Z,14.51
2018-04-16T07:34:36.948Z,14.42
2018-04-16T07:35:36.878Z,14.45
2018-04-16T07:36:36.797Z,14.43
2018-04-16T07:37:36.744Z,14.45
2018-04-16T07:38:36.678Z,14.43
2018-04-16T07:39:36.592Z,14.40
2018-04-16T07:40:36.524Z,14.40
2018-04-16T07:41:36.439Z,14.42
2018-04-16T07:42:36.369Z,14.42
2018-04-16T07:43:36.311Z,14.47
2018-04-16T07:44:36.251Z,14.52
2018-04-16T07:45:36.185Z,14.54
2018-04-16T07:46:36.118Z,14.43
2018-04-16T07:47:36.034Z,14.37
2018-04-16T07:48:35.952Z,14.29
2018-04-16T07:49:35.910Z,14.42
2018-04-16T07:50:35.824Z,14.51
2018-04-16T07:51:35.774Z,14.50
2018-04-16T07:52:35.697Z,14.55
2018-04-16T07:53:35.625Z,14.60
2018-04-16T07:54:35.552Z,14.62
2018-04-16T07:55:35.467Z,14.55
2018-04-16T07:56:35.412Z,14.60
2018-04-16T07:57:35.347Z,14.65
2018-04-16T07:58:35.289Z,14.57
2018-04-16T07:59:35.201Z,14.61
2018-04-16T08:00:35.135Z,14.64
2018-04-16T08:01:35.069Z,14.64
2018-04-16T08:02:35.009Z,14.57
2018-04-16T08:03:34.924Z,14.65
2018-04-16T08:04:34.847Z,14.64
2018-04-16T08:05:34.792Z,14.54
2018-04-16T08:06:34.740Z,14.36
2018-04-16T08:07:34.651Z,14.45
2018-04-16T08:08:34.558Z,14.39
2018-04-16T08:09:34.490Z,14.45
2018-04-16T08:10:34.422Z,14.25
2018-04-16T08:11:34.365Z,14.29
2018-04-16T08:12:34.306Z,14.20
2018-04-16T08:13:34.227Z,14.25
2018-04-16T08:14:34.138Z,14.24
2018-04-16T08:15:34.090Z,14.32
2018-04-16T08:16:33.996Z,14.24
2018-04-16T08:17:33.942Z,14.32
2018-04-16T08:18:33.876Z,14.28
2018-04-16T08:19:33.793Z,14.27
2018-04-16T08:20:33.719Z,14.25
2018-04-16T08:21:33.647Z,14.25
2018-04-16T08:22:33.600Z,14.20
2018-04-16T08:23:33.524Z,14.22
2018-04-16T08:24:33.441Z,14.18
2018-04-16T08:25:33.382Z,14.06
2018-04-16T08:26:33.294Z,14.14
2018-04-16T08:27:33.223Z,14.21
2018-04-16T08:28:33.173Z,14.22
2018-04-16T08:29:33.087Z,14.21
2018-04-16T08:30:33.014Z,14.18
2018-04-16T08:31:32.964Z,14.22
2018-04-16T08:32:32.875Z,14.18
2018-04-16T08:33:32.803Z,14.28
2018-04-16T08:34:32.743Z,14.18
2018-04-16T08:35:32.687Z,14.25
2018-04-16T08:36:32.655Z,14.18
2018-04-16T08:37:32.527Z,14.20
2018-04-16T08:38:32.491Z,14.21
2018-04-16T08:39:32.409Z,14.25
2018-04-16T08:40:32.319Z,14.27
2018-04-16T08:41:32.247Z,14.24
2018-04-16T08:42:32.179Z,14.21
2018-04-16T08:43:32.122Z,14.17
2018-04-16T08:44:32.063Z,14.27
2018-04-16T08:45:31.976Z,14.17
2018-04-16T08:46:31.894Z,14.17
2018-04-16T08:47:31.838Z,14.18
2018-04-16T08:48:31.764Z,14.18
2018-04-16T08:49:31.697Z,14.09
2018-04-16T08:50:31.611Z,14.04
2018-04-16T08:51:31.539Z,13.96
2018-04-16T08:52:31.540Z,13.85
2018-04-16T08:53:31.417Z,13.92
2018-04-16T08:54:31.354Z,13.88
2018-04-16T08:55:31.256Z,13.87
2018-04-16T08:56:31.203Z,13.96
2018-04-16T08:57:31.145Z,13.96
2018-04-16T08:58:31.064Z,13.97
2018-04-16T08:59:30.981Z,14.02
2018-04-16T09:00:30.909Z,14.06
2018-04-16T09:01:30.841Z,14.06
2018-04-16T09:02:30.808Z,14.17
2018-04-16T09:03:30.713Z,14.27
2018-04-16T09:04:30.644Z,14.24
2018-04-16T09:05:30.572Z,14.15
2018-04-16T09:06:30.486Z,14.22
2018-04-16T09:07:30.411Z,14.32
2018-04-16T09:08:30.348Z,14.32
2018-04-16T09:09:30.300Z,14.27
2018-04-16T09:10:30.231Z,14.29
2018-04-16T09:11:30.133Z,14.32
2018-04-16T09:12:30.076Z,14.24
2018-04-16T09:13:30.012Z,14.36
2018-04-16T09:14:29.927Z,14.33
2018-04-16T09:15:29.872Z,14.35
2018-04-16T09:16:29.798Z,14.46
2018-04-16T09:17:29.730Z,14.46
2018-04-16T09:18:29.644Z,14.51
2018-04-16T09:19:29.575Z,14.58
2018-04-16T09:20:29.519Z,14.61
2018-04-16T09:21:29.441Z,14.60
2018-04-16T09:22:29.384Z,14.70
2018-04-16T09:23:29.297Z,14.84
2018-04-16T09:24:29.241Z,14.91
2018-04-16T09:25:29.167Z,14.94
2018-04-16T09:26:29.109Z,14.98
2018-04-16T09:27:29.023Z,14.96
2018-04-16T09:28:28.950Z,14.92
2018-04-16T09:29:28.893Z,15.03
2018-04-16T09:30:28.823Z,15.09
2018-04-16T09:31:28.744Z,15.10
2018-04-16T09:32:28.676Z,15.09
2018-04-16T09:33:28.606Z,15.16
2018-04-16T09:34:28.542Z,15.31
2018-04-16T09:35:28.468Z,15.29
2018-04-16T09:36:28.422Z,15.23
2018-04-16T09:37:28.327Z,15.25
2018-04-16T09:38:28.262Z,15.14
2018-04-16T09:39:28.220Z,15.31
2018-04-16T09:40:28.142Z,15.32
2018-04-16T09:41:28.052Z,15.38
2018-04-16T09:42:28.008Z,15.34
2018-04-16T09:43:27.919Z,15.38
2018-04-16T09:44:27.842Z,15.51
2018-04-16T09:45:27.777Z,15.53
2018-04-16T09:46:27.726Z,15.54
2018-04-16T09:47:27.644Z,15.68
2018-04-16T09:48:27.585Z,15.68
2018-04-16T09:49:27.507Z,15.72
2018-04-16T09:50:27.464Z,15.71
2018-04-16T09:51:27.378Z,15.69
2018-04-16T09:52:27.297Z,15.67
2018-04-16T09:53:27.233Z,15.68
2018-04-16T09:54:27.162Z,15.71
2018-04-16T09:55:27.096Z,15.67
2018-04-16T09:56:27.030Z,15.67
2018-04-16T09:57:26.960Z,15.64
2018-04-16T09:58:26.916Z,15.59
2018-04-16T09:59:26.828Z,15.69
2018-04-16T10:00:26.773Z,15.72
2018-04-16T10:01:26.701Z,15.75
2018-04-16T10:02:26.616Z,15.72
2018-04-16T10:03:26.584Z,15.71
2018-04-16T10:04:26.531Z,15.76
2018-04-16T10:05:26.430Z,15.72
2018-04-16T10:06:26.371Z,15.74
2018-04-16T10:07:26.280Z,15.74
2018-04-16T10:08:26.223Z,15.71
2018-04-16T10:09:26.165Z,15.72
2018-04-16T10:10:26.070Z,15.69
2018-04-16T10:11:26.070Z,15.74
2018-04-16T10:12:25.953Z,15.65
2018-04-16T10:13:25.875Z,15.84
2018-04-16T10:14:25.800Z,15.82
2018-04-16T10:15:25.753Z,15.82
2018-04-16T10:16:25.668Z,16.00
2018-04-16T10:17:25.600Z,16.01
2018-04-16T10:18:25.547Z,15.86
2018-04-16T10:19:25.481Z,16.00
2018-04-16T10:20:25.393Z,16.02
2018-04-16T10:21:25.321Z,16.02
2018-04-16T10:22:25.273Z,16.02
2018-04-16T10:23:25.193Z,16.09
2018-04-16T10:24:25.118Z,16.09
2018-04-16T10:25:25.069Z,16.07
2018-04-16T10:26:24.994Z,16.09
2018-04-16T10:27:24.918Z,15.92
2018-04-16T10:28:24.873Z,15.96
2018-04-16T10:29:24.784Z,15.93
2018-04-16T10:30:24.751Z,16.00
2018-04-16T10:31:24.642Z,15.90
2018-04-16T10:32:24.599Z,16.02
2018-04-16T10:33:24.527Z,16.01
2018-04-16T10:34:24.446Z,16.00
2018-04-16T10:35:24.416Z,16.09
2018-04-16T10:36:24.313Z,16.07
2018-04-16T10:37:24.259Z,16.20
2018-04-16T10:38:24.187Z,16.21
2018-04-16T10:39:24.108Z,16.20
2018-04-16T10:40:24.039Z,16.20
2018-04-16T10:41:23.993Z,16.23
2018-04-16T10:42:23.900Z,16.17
2018-04-16T10:43:23.832Z,16.21
2018-04-16T10:44:23.785Z,16.15
2018-04-16T10:45:23.711Z,16.23
2018-04-16T10:46:23.661Z,16.28
2018-04-16T10:47:23.564Z,16.28
2018-04-16T10:48:23.498Z,16.28
2018-04-16T10:49:23.426Z,16.24
2018-04-16T10:50:23.377Z,16.17
2018-04-16T10:51:23.296Z,16.14
2018-04-16T10:52:23.239Z,16.24
2018-04-16T10:53:23.169Z,16.31
2018-04-16T10:54:23.089Z,16.39
2018-04-16T10:55:23.022Z,16.39
2018-04-16T10:56:22.966Z,16.50
2018-04-16T10:57:22.917Z,16.56
2018-04-16T10:58:22.822Z,16.46
2018-04-16T10:59:22.756Z,16.61
2018-04-16T11:00:22.703Z,16.66
2018-04-16T11:01:22.633Z,16.66
2018-04-16T11:02:22.554Z,16.63
2018-04-16T11:03:22.488Z,16.71
2018-04-16T11:04:22.420Z,16.73
2018-04-16T11:05:22.365Z,16.68
2018-04-16T11:06:22.295Z,16.71
2018-04-16T11:07:22.216Z,16.85
2018-04-16T11:08:22.178Z,16.79
2018-04-16T11:09:22.099Z,16.73
2018-04-16T11:10:22.018Z,16.75
2018-04-16T11:11:21.953Z,16.71
2018-04-16T11:12:21.882Z,16.64
2018-04-16T11:13:21.820Z,16.49
2018-04-16T11:14:21.750Z,16.66
2018-04-16T11:15:21.692Z,16.73
2018-04-16T11:16:21.614Z,16.71
2018-04-16T11:17:21.552Z,16.83
2018-04-16T11:18:21.503Z,16.79
2018-04-16T11:19:21.418Z,16.83
2018-04-16T11:20:21.348Z,16.93
2018-04-16T11:21:21.285Z,16.85
2018-04-16T11:22:21.238Z,16.88
2018-04-16T11:23:21.194Z,16.89
2018-04-16T11:24:21.111Z,16.81
2018-04-16T11:25:21.008Z,16.88
2018-04-16T11:26:20.944Z,16.85
2018-04-16T11:27:20.888Z,16.97
2018-04-16T11:28:20.831Z,17.04
2018-04-16T11:29:20.745Z,17.04
2018-04-16T11:30:20.677Z,17.00
2018-04-16T11:31:20.606Z,17.07
2018-04-16T11:32:20.565Z,17.07
2018-04-16T11:33:20.477Z,17.12
2018-04-16T11:34:20.407Z,17.15
2018-04-16T11:35:20.363Z,17.25
2018-04-16T11:36:20.295Z,17.31
2018-04-16T11:37:20.211Z,17.28
2018-04-16T11:38:20.157Z,17.22
2018-04-16T11:39:20.091Z,17.12
2018-04-16T11:40:20.011Z,17.16
2018-04-16T11:41:19.946Z,17.22
2018-04-16T11:42:19.929Z,17.08
2018-04-16T11:43:20.045Z,17.11
2018-04-16T11:44:19.750Z,17.19
2018-04-16T11:45:19.676Z,17.18
2018-04-16T11:46:19.631Z,17.18
2018-04-16T11:47:19.557Z,17.19
2018-04-16T11:48:19.482Z,17.18
2018-04-16T11:49:19.413Z,17.23
2018-04-16T11:50:19.346Z,17.28
2018-04-16T11:51:19.300Z,17.25
2018-04-16T11:52:19.213Z,17.37
2018-04-16T11:53:19.159Z,17.28
2018-04-16T11:54:19.077Z,17.43
2018-04-16T11:55:19.016Z,17.38
2018-04-16T11:56:19.106Z,17.43
2018-04-16T11:57:18.897Z,17.51
2018-04-16T11:58:18.826Z,17.51
2018-04-16T11:59:18.761Z,17.52
2018-04-16T12:00:18.682Z,17.51
2018-04-16T12:01:18.618Z,17.59
2018-04-16T12:02:18.542Z,17.59
2018-04-16T12:03:18.503Z,17.59
2018-04-16T12:04:18.505Z,17.68
2018-04-16T12:05:18.363Z,17.71
2018-04-16T12:06:18.304Z,17.59
2018-04-16T12:07:18.211Z,17.58
2018-04-16T12:08:18.158Z,17.58
2018-04-16T12:09:18.078Z,17.70
2018-04-16T12:10:18.021Z,17.59
2018-04-16T12:11:17.952Z,17.58
2018-04-16T12:12:17.925Z,17.66
2018-04-16T12:13:17.831Z,17.72
2018-04-16T12:14:17.763Z,17.87
2018-04-16T12:15:17.698Z,17.89
2018-04-16T12:16:17.622Z,17.84
2018-04-16T12:17:17.569Z,17.90
2018-04-16T12:18:17.499Z,17.75
2018-04-16T12:19:17.417Z,17.89
2018-04-16T12:20:17.387Z,17.86
2018-04-16T12:21:17.309Z,17.89
2018-04-16T12:22:17.270Z,17.96
2018-04-16T12:23:17.150Z,17.82
2018-04-16T12:24:17.108Z,17.87
2018-04-16T12:25:17.050Z,17.84
2018-04-16T12:26:16.974Z,17.90
2018-04-16T12:27:16.909Z,17.84
2018-04-16T12:28:16.830Z,17.81
2018-04-16T12:29:16.761Z,17.77
2018-04-16T12:30:16.690Z,17.81
2018-04-16T12:31:16.639Z,17.75
2018-04-16T12:32:16.568Z,17.70
2018-04-16T12:33:16.518Z,17.77
2018-04-16T12:34:16.510Z,17.75
2018-04-16T12:35:16.363Z,17.72
2018-04-16T12:36:16.338Z,17.77
2018-04-16T12:37:16.243Z,17.78
2018-04-16T12:38:16.174Z,17.84
2018-04-16T12:39:16.108Z,17.87
2018-04-16T12:40:16.032Z,17.86
2018-04-16T12:41:15.973Z,17.82
2018-04-16T12:42:15.893Z,17.78
2018-04-16T12:43:15.827Z,17.89
2018-04-16T12:44:15.760Z,17.86
2018-04-16T12:45:15.692Z,17.81
2018-04-16T12:46:15.633Z,17.93
2018-04-16T12:47:15.566Z,17.86
2018-04-16T12:48:15.520Z,17.89
2018-04-16T12:49:15.444Z,17.79
2018-04-16T12:50:15.366Z,17.95
2018-04-16T12:51:15.307Z,17.71